Observations for MILDENHALL RAF, United Kingdom (EGUN)

EGUN 130756Z AUTO 10007KT 9999 OVC041 04/03 A3007 RMK AO2 SLP186 T00430025 $
EGUN 130756Z AUTO 10007KT 9999 OVC041 04/03 A3007 RMK AO2 SLP186 T00430025 .
EGUN 130711Z AUTO 10011KT 9999 SCT042 04/02 A3006 RMK AO2 SLP183 $
EGUN 130716Z AUTO 10009KT 9999 BKN042 04/02 A3006 RMK AO2 SLP183 $
EGUN 130656Z AUTO 11012KT 9999 BKN043 04/01 A3006 RMK AO2 SLP183 T00440014 $
EGUN 130656Z AUTO 11012KT 9999 BKN043 04/01 A3006 RMK AO2 SLP183 T00440014 .
EGUN 130556Z AUTO 12009KT 9999 OVC040 05/01 A3005 RMK AO2 SLP180 T00490014 10055 20047 57007 $  
EGUN 130556Z AUTO 12009KT 9999 OVC040 05/01 A3005 RMK AO2 SLP180 T00490014 10055 20047 57007 .
EGUN 130456Z AUTO 13011KT 9999 OVC039 05/01 A3005 RMK AO2 SLP180 T00490012 $
EGUN 130456Z AUTO 13011KT 9999 OVC039 05/01 A3005 RMK AO2 SLP180 T00490012 .
EGUN 130356Z AUTO 12010KT 9999 OVC035 05/02 A3006 RMK AO2 SLP183 T00490017 $
EGUN 130356Z AUTO 12010KT 9999 OVC035 05/02 A3006 RMK AO2 SLP183 T00490017 .
EGUN 130256Z AUTO 11012KT 9999 OVC035 05/03 A3007 RMK AO2 SLP186 T00470027 57010 $  
EGUN 130256Z AUTO 11012KT 9999 OVC035 05/03 A3007 RMK AO2 SLP186 T00470027 57010 .
EGUN 130156Z AUTO 12011KT 9999 OVC034 05/02 A3009 RMK AO2 SLP193 T00490023 $
EGUN 130156Z AUTO 12011KT 9999 OVC034 05/02 A3009 RMK AO2 SLP193 T00490023 .
EGUN 130056Z AUTO 13013KT 9999 OVC034 05/03 A3009 RMK AO2 SLP193 T00510028 $
EGUN 130056Z AUTO 13013KT 9999 OVC034 05/03 A3009 RMK AO2 SLP193 T00510028 .
EGUN 122356Z AUTO 12008KT 9999 OVC040 06/03 A3010 RMK AO2 SLP196 T00550032 10056 20006 400740006 56009 $
EGUN 122356Z AUTO 12008KT 9999 OVC040 06/03 A3010 RMK AO2 SLP196 T00550032 10056 20006 400740006 56009 .
EGUN 122256Z AUTO 10010KT 9999 OVC040 05/04 A3010 RMK AO2 SLP196 T00540039 $
EGUN 122256Z AUTO 10010KT 9999 OVC040 05/04 A3010 RMK AO2 SLP196 T00540039 .
EGUN 122156Z AUTO 10008KT 9999 OVC041 05/04 A3011 RMK AO2 SLP200 T00480041 $
EGUN 122156Z AUTO 10008KT 9999 OVC041 05/04 A3011 RMK AO2 SLP200 T00480041 .
EGUN 122056Z AUTO 11005KT 9999 OVC042 04/04 A3013 RMK AO2 SLP207 T00440038 57009 $  
EGUN 122056Z AUTO 11005KT 9999 OVC042 04/04 A3013 RMK AO2 SLP207 T00440038 57009 .
EGUN 121956Z AUTO 10003KT 9999 OVC041 04/04 A3014 RMK AO2 SLP210 T00360035 $
EGUN 121956Z AUTO 10003KT 9999 OVC041 04/04 A3014 RMK AO2 SLP210 T00360035 .
EGUN 121856Z AUTO 12004KT 9999 OVC042 02/02 A3015 RMK AO2 SLP214 T00190015 $
EGUN 121856Z AUTO 12004KT 9999 OVC042 02/02 A3015 RMK AO2 SLP214 T00190015 .
EGUN 121811Z AUTO 10005KT 9999 BKN045 01/00 A3016 RMK AO2 SLP217 $
EGUN 121756Z AUTO 09004KT 9999 FEW045 01/00 A3016 RMK AO2 SLP217 T00111001 10074 20011 58008 $  
EGUN 121756Z AUTO 09004KT 9999 FEW045 01/00 A3016 RMK AO2 SLP217 T00111001 10074 20011 58008 .
EGUN 121656Z AUTO 10004KT 9999 CLR 03/00 A3017 RMK AO2 SLP220 T00271001 $   
EGUN 121656Z AUTO 10004KT 9999 CLR 03/00 A3017 RMK AO2 SLP220 T00271001 .
EGUN 121556Z AUTO 13005KT 9999 CLR 04/00 A3018 RMK AO2 SLP224 T00371001 $   
EGUN 121556Z AUTO 13005KT 9999 CLR 04/00 A3018 RMK AO2 SLP224 T00371001 .
EGUN 121456Z AUTO 13010KT 9999 CLR 06/M01 A3018 RMK AO2 SLP224 T00621015 57008 $
EGUN 121456Z AUTO 13010KT 9999 CLR 06/M01 A3018 RMK AO2 SLP224 T00621015 57008 .
EGUN 121356Z AUTO 14010KT 9999 CLR 07/M01 A3019 RMK AO2 SLP227 T00681009 $  
EGUN 121356Z AUTO 14010KT 9999 CLR 07/M01 A3019 RMK AO2 SLP227 T00681009 .
EGUN 121256Z AUTO 14011KT 9999 FEW039 07/00 A3020 RMK AO2 SLP230 T00740001 $
EGUN 121256Z AUTO 14011KT 9999 FEW039 07/00 A3020 RMK AO2 SLP230 T00740001 .
EGUN 121156Z AUTO 12011KT 9999 CLR 07/01 A3021 RMK AO2 SLP234 T00710014 10073 20037 55004 $ 
EGUN 121156Z AUTO 12011KT 9999 CLR 07/01 A3021 RMK AO2 SLP234 T00710014 10073 20037 55004 .
EGUN 121056Z AUTO 13013KT 9999 CLR 07/03 A3022 RMK AO2 SLP237 T00710028 $   
EGUN 121056Z AUTO 13013KT 9999 CLR 07/03 A3022 RMK AO2 SLP237 T00710028 .
EGUN 120956Z AUTO 14012KT 9999 CLR 06/04 A3022 RMK AO2 SLP237 T00640044 $   
EGUN 120956Z AUTO 14012KT 9999 CLR 06/04 A3022 RMK AO2 SLP237 T00640044 .
EGUN 120936Z AUTO 13010KT 9999 FEW000 SCT050 06/05 A3022 RMK AO2 SLP237 $
EGUN 120936Z COR AUTO 13010KT 9999 FEW030 SCT050 06/05 A3022 RMK AO2 SLP237 $ COR 0940
EGUN 120856Z AUTO 14009KT 9999 SCT050 BKN150 06/06 A3022 RMK AO2 SLP237 T00560055 52007 $   
EGUN 120856Z AUTO 14009KT 9999 SCT050 BKN150 06/06 A3022 RMK AO2 SLP237 T00560055 52007 .